Time;durP1;ratioP1;P1;durP2;ratioP2;P2;SDS_P1;SDS_P2;PMS_P1;PMS_P2;Temp;Humidity;BMP_temperature;BMP_pressure;BME280_temperature;BME280_humidity;BME280_pressure;Samples;Min_cycle;Max_cycle;Signal;HPM_P1;HPM_P2
2022/10/31 00:01:36;;;;;;;22.20;11.77;;;12.10;99.90;;;;;;5116324;28;20449;-76
2022/10/31 00:04:03;;;;;;;19.85;12.00;;;12.10;99.90;;;;;;5116249;28;20030;-76
2022/10/31 00:06:29;;;;;;;20.25;12.27;;;12.10;99.90;;;;;;5116537;28;20114;-76
2022/10/31 00:08:57;;;;;;;19.10;12.35;;;12.00;99.90;;;;;;5116170;28;20028;-76
2022/10/31 00:11:24;;;;;;;17.08;12.43;;;12.10;99.90;;;;;;5116571;28;20023;-76
2022/10/31 00:13:49;;;;;;;15.75;12.05;;;12.10;99.90;;;;;;5115983;28;20035;-76
2022/10/31 00:16:18;;;;;;;18.70;12.70;;;12.00;99.90;;;;;;5116471;28;20039;-76
2022/10/31 00:18:47;;;;;;;17.40;11.05;;;12.10;99.90;;;;;;5115638;28;20491;-76
2022/10/31 00:21:12;;;;;;;16.33;11.77;;;12.00;99.90;;;;;;5115934;27;20031;-75
2022/10/31 00:23:38;;;;;;;17.98;12.18;;;12.10;99.90;;;;;;5115962;28;20032;-75
2022/10/31 00:26:05;;;;;;;15.88;11.48;;;12.10;99.90;;;;;;5114476;28;20035;-75
2022/10/31 00:28:31;;;;;;;15.50;10.52;;;12.00;99.90;;;;;;5116114;28;20028;-75
2022/10/31 00:31:02;;;;;;;16.27;11.40;;;12.10;99.90;;;;;;5115443;28;20529;-75
2022/10/31 00:33:28;;;;;;;16.00;10.70;;;12.00;99.90;;;;;;5115774;28;20468;-75
2022/10/31 00:35:54;;;;;;;15.43;10.48;;;12.00;99.90;;;;;;5115141;28;20782;-75
2022/10/31 00:38:20;;;;;;;15.50;10.93;;;12.00;99.90;;;;;;5116182;28;20074;-75
2022/10/31 00:40:45;;;;;;;17.77;10.95;;;12.00;99.90;;;;;;5115168;28;20059;-75
2022/10/31 00:43:11;;;;;;;18.08;10.43;;;11.90;99.90;;;;;;5115790;28;20107;-75
2022/10/31 00:45:37;;;;;;;14.18;9.63;;;11.90;99.90;;;;;;5115771;28;20066;-75
2022/10/31 00:48:02;;;;;;;16.13;10.38;;;11.90;99.90;;;;;;5115023;28;20028;-75
2022/10/31 00:50:28;;;;;;;16.13;9.73;;;11.90;99.90;;;;;;5115771;28;20402;-74
2022/10/31 00:52:54;;;;;;;14.57;10.45;;;11.90;99.90;;;;;;5114049;28;20024;-75
2022/10/31 00:55:19;;;;;;;14.13;9.48;;;11.90;99.90;;;;;;5115321;28;20023;-75
2022/10/31 00:57:48;;;;;;;15.02;10.85;;;11.90;99.90;;;;;;5115146;28;20039;-78
2022/10/31 01:00:14;;;;;;;13.63;10.38;;;11.90;99.90;;;;;;5115670;28;20157;-75
2022/10/31 01:02:40;;;;;;;13.98;9.80;;;11.90;99.90;;;;;;5114212;28;20475;-75
2022/10/31 01:05:06;;;;;;;13.95;9.60;;;11.90;99.90;;;;;;5115034;28;20070;-76
2022/10/31 01:07:31;;;;;;;17.05;10.38;;;11.90;99.90;;;;;;5115315;28;20415;-75
2022/10/31 01:09:57;;;;;;;13.80;10.05;;;11.90;99.90;;;;;;5114955;28;20030;-76
2022/10/31 01:12:22;;;;;;;12.85;9.10;;;11.90;99.90;;;;;;5115004;28;20028;-76
2022/10/31 01:14:48;;;;;;;16.50;11.20;;;11.90;99.90;;;;;;5114728;28;20032;-77
2022/10/31 01:17:14;;;;;;;15.80;10.02;;;11.90;99.90;;;;;;5115191;28;20031;-76
2022/10/31 01:19:40;;;;;;;14.85;10.23;;;11.90;99.90;;;;;;5115192;28;20031;-75
2022/10/31 01:22:06;;;;;;;15.02;10.13;;;11.90;99.90;;;;;;5114630;28;20039;-74
2022/10/31 01:24:32;;;;;;;16.67;10.38;;;11.90;99.90;;;;;;5115061;28;20023;-74
2022/10/31 01:26:57;;;;;;;19.17;10.85;;;11.90;99.90;;;;;;5114252;28;20524;-75
2022/10/31 01:29:23;;;;;;;17.83;10.70;;;11.90;99.90;;;;;;5114639;28;20077;-76
2022/10/31 01:31:48;;;;;;;15.07;9.65;;;11.90;99.90;;;;;;5114499;28;20020;-74
2022/10/31 01:34:16;;;;;;;13.65;9.73;;;12.00;99.90;;;;;;5114917;28;20511;-74
2022/10/31 01:36:44;;;;;;;15.25;10.20;;;12.00;99.90;;;;;;5114799;28;20118;-75
2022/10/31 01:39:13;;;;;;;16.00;11.10;;;12.00;99.90;;;;;;5112781;28;20050;-74
2022/10/31 01:41:42;;;;;;;18.73;11.57;;;11.90;99.90;;;;;;5113856;28;20075;-75
2022/10/31 01:44:13;;;;;;;16.05;11.75;;;11.90;99.90;;;;;;5114506;28;20051;-75
2022/10/31 01:46:59;;;;;;;17.50;10.55;;;11.90;99.90;;;;;;5114251;28;20036;-75
2022/10/31 01:49:33;;;;;;;16.27;10.25;;;11.90;99.90;;;;;;5114586;28;20027;-75
2022/10/31 01:52:07;;;;;;;15.05;10.18;;;12.00;99.90;;;;;;5114187;28;20031;-75
2022/10/31 01:54:38;;;;;;;17.75;10.73;;;12.00;99.90;;;;;;5114492;28;20107;-75
2022/10/31 01:57:06;;;;;;;14.77;10.07;;;12.00;99.90;;;;;;5114070;28;20117;-75
2022/10/31 01:59:37;;;;;;;14.95;10.02;;;12.00;99.90;;;;;;5114165;28;20153;-74
2022/10/31 02:02:03;;;;;;;13.90;9.45;;;12.00;99.90;;;;;;5114074;28;20455;-75
2022/10/31 02:04:29;;;;;;;12.35;8.82;;;12.00;99.90;;;;;;5114029;28;20027;-76
2022/10/31 02:07:04;;;;;;;13.57;9.60;;;12.00;99.90;;;;;;5114035;28;20031;-76
2022/10/31 02:09:33;;;;;;;14.18;9.68;;;12.00;99.90;;;;;;5114626;28;20053;-75
2022/10/31 02:12:00;;;;;;;13.98;10.20;;;12.00;99.90;;;;;;5113753;28;20126;-73
2022/10/31 02:14:29;;;;;;;13.18;9.25;;;12.00;99.90;;;;;;5113875;28;20034;-74
2022/10/31 02:16:54;;;;;;;14.40;10.30;;;12.00;99.90;;;;;;5113576;28;20036;-74
2022/10/31 02:19:57;;;;;;;13.88;9.93;;;12.00;99.90;;;;;;5114029;28;20024;-75
2022/10/31 02:22:29;;;;;;;14.25;10.02;;;12.00;99.90;;;;;;5100246;28;20032;-75
2022/10/31 02:25:19;;;;;;;16.77;10.63;;;12.00;99.90;;;;;;5113501;28;20478;-75
2022/10/31 02:28:15;;;;;;;14.05;9.75;;;12.00;99.90;;;;;;5116819;28;20034;-75
2022/10/31 02:31:01;;;;;;;13.70;10.15;;;12.00;99.90;;;;;;5112632;28;20356;-75
2022/10/31 02:33:43;;;;;;;14.32;10.30;;;12.00;99.90;;;;;;5112446;28;20407;-75
2022/10/31 02:36:12;;;;;;;15.07;10.10;;;12.00;99.90;;;;;;5113139;28;20044;-76
2022/10/31 02:38:59;;;;;;;15.63;10.35;;;12.00;99.90;;;;;;5113332;28;20495;-75
2022/10/31 02:41:56;;;;;;;15.63;10.88;;;12.00;99.90;;;;;;5113790;28;20125;-74
2022/10/31 02:44:39;;;;;;;15.13;9.45;;;12.00;99.90;;;;;;5110020;28;20040;-75
2022/10/31 02:47:18;;;;;;;13.45;9.95;;;12.00;99.90;;;;;;5111875;28;20567;-75
2022/10/31 02:49:52;;;;;;;13.52;9.88;;;12.00;99.90;;;;;;5113459;28;20027;-74
2022/10/31 02:52:23;;;;;;;16.98;10.55;;;12.00;99.90;;;;;;5112870;28;20102;-75
2022/10/31 02:54:50;;;;;;;13.50;10.35;;;12.00;99.90;;;;;;5113549;28;20034;-74
2022/10/31 02:57:20;;;;;;;16.17;9.65;;;12.00;99.90;;;;;;5112951;28;20031;-75
2022/10/31 02:59:53;;;;;;;13.77;9.35;;;12.00;99.90;;;;;;5113062;28;20027;-75
2022/10/31 03:02:30;;;;;;;13.73;9.65;;;12.10;99.90;;;;;;5112918;28;20363;-74
2022/10/31 03:04:59;;;;;;;14.30;8.98;;;12.10;99.90;;;;;;5112981;28;20380;-75
2022/10/31 03:07:42;;;;;;;13.75;10.13;;;12.10;99.90;;;;;;5112947;28;20388;-75
2022/10/31 03:10:40;;;;;;;12.27;8.73;;;12.00;99.90;;;;;;5112839;28;20020;-75
2022/10/31 03:13:12;;;;;;;12.02;8.95;;;12.00;99.90;;;;;;5112936;28;20035;-74
2022/10/31 03:15:44;;;;;;;12.18;9.02;;;12.00;99.90;;;;;;5113832;28;20468;-76
2022/10/31 03:18:32;;;;;;;13.70;9.35;;;12.00;99.90;;;;;;5116845;28;20058;-74
2022/10/31 03:21:14;;;;;;;14.82;10.45;;;12.00;99.90;;;;;;5117168;28;20038;-74
2022/10/31 03:23:42;;;;;;;13.75;9.90;;;12.00;99.90;;;;;;5117496;27;20088;-74
2022/10/31 03:26:10;;;;;;;15.18;10.20;;;12.00;99.90;;;;;;5116992;28;20027;-74
2022/10/31 03:29:09;;;;;;;12.75;9.45;;;12.00;99.90;;;;;;5117021;28;20047;-74
2022/10/31 03:31:44;;;;;;;12.32;9.57;;;12.00;99.90;;;;;;5116840;28;20035;-74
2022/10/31 03:34:13;;;;;;;13.98;9.80;;;12.00;99.90;;;;;;5116584;28;20107;-76
2022/10/31 03:36:41;;;;;;;15.57;10.40;;;12.00;99.90;;;;;;5117318;28;20084;-75
2022/10/31 03:39:12;;;;;;;14.55;10.27;;;12.00;99.90;;;;;;5116392;28;20051;-75
2022/10/31 03:41:40;;;;;;;;;;;12.00;99.90;;;;;;5117259;28;20464;-75
2022/10/31 03:44:14;;;;;;;14.77;10.57;;;12.00;99.90;;;;;;5116563;28;20015;-75
2022/10/31 03:46:41;;;;;;;13.32;9.23;;;12.00;99.90;;;;;;5117044;28;20139;-75
2022/10/31 03:49:07;;;;;;;11.93;8.55;;;12.00;99.90;;;;;;5115795;28;20493;-75
2022/10/31 03:51:43;;;;;;;11.13;7.28;;;12.00;99.90;;;;;;5116598;28;20028;-75
2022/10/31 03:54:12;;;;;;;11.55;7.40;;;12.00;99.90;;;;;;5116477;28;20026;-75
2022/10/31 03:56:51;;;;;;;10.68;7.43;;;12.00;99.90;;;;;;5115405;28;20063;-75
2022/10/31 03:59:27;;;;;;;9.40;6.53;;;12.00;99.90;;;;;;5114821;28;20028;-74
2022/10/31 04:01:58;;;;;;;8.63;5.97;;;12.00;99.90;;;;;;5114353;28;20030;-75
2022/10/31 04:04:26;;;;;;;7.05;5.70;;;12.00;99.90;;;;;;5115628;28;20019;-75
2022/10/31 04:06:54;;;;;;;7.18;5.60;;;12.00;99.90;;;;;;5116205;28;20100;-74
2022/10/31 04:09:20;;;;;;;7.38;5.28;;;12.00;99.90;;;;;;5115595;28;20026;-75
2022/10/31 04:11:50;;;;;;;6.70;5.35;;;12.00;99.90;;;;;;5115859;28;20056;-74
2022/10/31 04:14:16;;;;;;;7.03;5.50;;;12.00;99.90;;;;;;5115603;28;20062;-75
2022/10/31 04:16:44;;;;;;;8.85;5.57;;;11.90;99.90;;;;;;5115655;28;20150;-74
2022/10/31 04:19:14;;;;;;;6.93;5.55;;;11.90;99.90;;;;;;5112884;28;20067;-74
2022/10/31 04:21:43;;;;;;;7.93;5.50;;;11.90;99.90;;;;;;5116218;28;20047;-74
2022/10/31 04:24:08;;;;;;;7.22;4.90;;;11.90;99.90;;;;;;5115861;28;20410;-74
2022/10/31 04:26:34;;;;;;;6.95;5.22;;;11.80;99.90;;;;;;5116178;28;20020;-76
2022/10/31 04:29:00;;;;;;;6.53;5.32;;;11.80;99.90;;;;;;5116140;28;20024;-75
2022/10/31 04:31:26;;;;;;;6.30;4.70;;;11.80;99.90;;;;;;5115679;28;20024;-75
2022/10/31 04:33:52;;;;;;;6.50;4.85;;;11.80;99.90;;;;;;5114319;28;20449;-75
2022/10/31 04:36:17;;;;;;;6.40;5.20;;;11.80;99.90;;;;;;5115751;28;20052;-75
2022/10/31 04:38:43;;;;;;;7.32;5.32;;;11.70;99.90;;;;;;5115634;28;20027;-75
2022/10/31 04:41:09;;;;;;;6.95;5.45;;;11.70;99.90;;;;;;5115472;28;20016;-75
2022/10/31 04:43:34;;;;;;;6.63;5.13;;;11.60;99.90;;;;;;5115811;28;20020;-76
2022/10/31 04:46:00;;;;;;;7.25;5.57;;;11.60;99.90;;;;;;5115821;28;20544;-76
2022/10/31 04:48:26;;;;;;;8.85;5.13;;;11.60;99.90;;;;;;5115180;28;20056;-76
2022/10/31 04:50:51;;;;;;;7.53;5.43;;;11.60;99.90;;;;;;5115615;28;20414;-76
2022/10/31 04:53:17;;;;;;;6.90;5.50;;;11.60;99.90;;;;;;5115235;28;20068;-76
2022/10/31 04:55:43;;;;;;;7.53;5.75;;;11.60;99.90;;;;;;5115961;28;20081;-76
2022/10/31 04:58:08;;;;;;;7.18;5.15;;;11.60;99.90;;;;;;5115217;28;20036;-76
2022/10/31 05:00:34;;;;;;;7.20;5.65;;;11.60;99.90;;;;;;5115227;28;20077;-76
2022/10/31 05:03:00;;;;;;;6.75;5.35;;;11.60;99.90;;;;;;5115457;28;20016;-76
2022/10/31 05:05:28;;;;;;;7.55;5.57;;;11.50;99.90;;;;;;5114936;28;20031;-75
2022/10/31 05:07:55;;;;;;;7.20;5.57;;;11.50;99.90;;;;;;5115064;28;20031;-75
2022/10/31 05:10:23;;;;;;;8.93;5.95;;;11.50;99.90;;;;;;5114864;28;20027;-75
2022/10/31 05:12:52;;;;;;;8.88;6.10;;;11.50;99.90;;;;;;5115331;28;20082;-74
2022/10/31 05:15:21;;;;;;;7.13;5.38;;;11.50;99.90;;;;;;5114884;28;20027;-75
2022/10/31 05:17:47;;;;;;;8.32;5.47;;;11.50;99.90;;;;;;5115126;28;20153;-75
2022/10/31 05:20:13;;;;;;;8.68;5.38;;;11.50;99.90;;;;;;5114711;28;20480;-75
2022/10/31 05:22:47;;;;;;;7.00;4.95;;;11.50;99.90;;;;;;5115057;28;20030;-75
2022/10/31 05:25:13;;;;;;;8.43;6.07;;;11.50;99.90;;;;;;5114361;28;20028;-75
2022/10/31 05:27:43;;;;;;;11.52;5.65;;;11.50;99.90;;;;;;5115066;28;20043;-75
2022/10/31 05:30:10;;;;;;;8.32;6.00;;;11.50;99.90;;;;;;5114684;28;20124;-75
2022/10/31 05:32:48;;;;;;;9.27;6.25;;;11.50;99.90;;;;;;5114399;28;20110;-75
2022/10/31 05:35:20;;;;;;;7.72;5.93;;;11.50;99.90;;;;;;5114227;28;20484;-75
2022/10/31 05:37:46;;;;;;;8.73;6.18;;;11.50;99.90;;;;;;5114512;28;20032;-75
2022/10/31 05:40:13;;;;;;;9.30;6.90;;;11.50;99.90;;;;;;5131933;27;20027;-75
2022/10/31 05:42:40;;;;;;;12.65;6.20;;;11.60;99.90;;;;;;5135842;27;20035;-75
2022/10/31 05:45:10;;;;;;;8.02;6.40;;;11.50;99.90;;;;;;5130793;27;20471;-76
2022/10/31 05:47:35;;;;;;;7.25;6.20;;;11.60;99.90;;;;;;5114313;28;20038;-75
2022/10/31 05:50:01;;;;;;;8.25;6.25;;;11.50;99.90;;;;;;5114236;28;20376;-75
2022/10/31 05:52:27;;;;;;;9.82;6.55;;;11.60;99.90;;;;;;5113785;28;20062;-76
2022/10/31 05:54:52;;;;;;;9.30;6.78;;;11.60;99.90;;;;;;5112892;28;20031;-75
2022/10/31 05:57:18;;;;;;;8.52;6.53;;;11.60;99.90;;;;;;5113891;28;20027;-75
2022/10/31 05:59:44;;;;;;;10.27;6.57;;;11.60;99.90;;;;;;5112669;28;20514;-76
2022/10/31 06:02:09;;;;;;;9.73;6.75;;;11.60;99.90;;;;;;5114316;28;20072;-75
2022/10/31 06:04:35;;;;;;;9.27;6.35;;;11.60;99.90;;;;;;5113878;28;20099;-75
2022/10/31 06:07:01;;;;;;;8.98;6.65;;;11.60;99.90;;;;;;5114167;28;20036;-74
2022/10/31 06:09:26;;;;;;;9.55;6.97;;;11.60;99.90;;;;;;5114973;27;20019;-74
2022/10/31 06:11:52;;;;;;;7.82;6.15;;;11.70;99.90;;;;;;5134294;27;20026;-75
2022/10/31 06:14:17;;;;;;;10.30;6.35;;;11.60;99.90;;;;;;5134540;27;20059;-74
2022/10/31 06:16:43;;;;;;;9.15;6.32;;;11.60;99.90;;;;;;5122095;27;20040;-75
2022/10/31 06:19:09;;;;;;;10.05;6.30;;;11.60;99.90;;;;;;5113632;28;20467;-74
2022/10/31 06:21:35;;;;;;;9.20;6.60;;;11.60;99.90;;;;;;5112283;28;20051;-77
2022/10/31 06:24:00;;;;;;;9.23;6.82;;;11.70;99.90;;;;;;5113516;28;20024;-75
2022/10/31 06:26:26;;;;;;;9.63;6.47;;;11.60;99.90;;;;;;5113279;28;20032;-75
2022/10/31 06:28:51;;;;;;;9.85;5.97;;;11.60;99.90;;;;;;5113627;28;20051;-74
2022/10/31 06:31:17;;;;;;;11.68;6.13;;;11.60;99.90;;;;;;5113239;28;20375;-75
2022/10/31 06:33:43;;;;;;;13.90;7.47;;;11.60;99.90;;;;;;5113341;28;20074;-76
2022/10/31 06:36:09;;;;;;;9.13;6.57;;;11.70;99.90;;;;;;5113309;28;20087;-75
2022/10/31 06:38:35;;;;;;;10.30;6.53;;;11.70;99.90;;;;;;5112959;28;20079;-75
2022/10/31 06:41:05;;;;;;;9.20;6.00;;;11.70;99.90;;;;;;5113148;28;20047;-75
2022/10/31 06:43:31;;;;;;;8.90;6.35;;;11.70;99.90;;;;;;5113040;28;20031;-75
2022/10/31 06:45:57;;;;;;;10.93;7.35;;;11.70;99.90;;;;;;5113278;28;20027;-75
2022/10/31 06:48:23;;;;;;;8.77;6.50;;;11.70;99.90;;;;;;5115017;28;20032;-75
2022/10/31 06:50:49;;;;;;;12.07;7.13;;;11.70;99.90;;;;;;5114529;28;20040;-74
2022/10/31 06:53:15;;;;;;;10.90;6.43;;;11.80;99.90;;;;;;5112891;28;20034;-76
2022/10/31 06:55:41;;;;;;;8.80;6.40;;;11.80;99.90;;;;;;5112955;28;20027;-75
2022/10/31 06:58:09;;;;;;;12.15;7.07;;;11.80;99.90;;;;;;5113018;28;20035;-74
2022/10/31 07:00:34;;;;;;;11.35;6.75;;;11.80;99.90;;;;;;5112754;28;20424;-74
2022/10/31 07:03:03;;;;;;;10.48;6.45;;;11.80;99.90;;;;;;5113124;28;20027;-76
2022/10/31 07:05:29;;;;;;;11.80;6.95;;;11.80;99.90;;;;;;5111402;28;20036;-74
2022/10/31 07:08:00;;;;;;;12.00;7.03;;;11.80;99.90;;;;;;5113044;28;20036;-75
2022/10/31 07:10:28;;;;;;;11.25;7.57;;;11.80;99.90;;;;;;5112780;28;20024;-74
2022/10/31 07:12:55;;;;;;;11.70;6.93;;;11.90;99.90;;;;;;5112739;28;20050;-75
2022/10/31 07:15:22;;;;;;;11.68;7.45;;;11.90;99.90;;;;;;5112587;28;20028;-75
2022/10/31 07:17:48;;;;;;;10.95;7.38;;;11.90;99.90;;;;;;5112463;28;20490;-75
2022/10/31 07:20:13;;;;;;;10.73;7.38;;;11.90;99.90;;;;;;5113086;28;20031;-75
2022/10/31 07:22:39;;;;;;;12.23;7.70;;;11.90;99.90;;;;;;5112213;28;20472;-75
2022/10/31 07:25:05;;;;;;;13.90;7.75;;;11.90;99.90;;;;;;5112904;28;20024;-75
2022/10/31 07:27:41;;;;;;;10.88;7.65;;;11.90;99.90;;;;;;5112267;28;20102;-74
2022/10/31 07:30:09;;;;;;;12.70;7.47;;;12.00;99.90;;;;;;5112420;28;20059;-74
2022/10/31 07:32:40;;;;;;;11.13;7.63;;;12.00;99.90;;;;;;5112229;28;20028;-75
2022/10/31 07:35:07;;;;;;;12.65;8.40;;;12.00;99.90;;;;;;5112936;28;20066;-75
2022/10/31 07:37:32;;;;;;;17.33;8.70;;;12.00;99.90;;;;;;5111881;28;20043;-74
2022/10/31 07:39:58;;;;;;;11.73;8.10;;;12.00;99.90;;;;;;5112675;28;20452;-74
2022/10/31 07:42:24;;;;;;;12.55;7.68;;;12.00;99.90;;;;;;5112473;28;20035;-74
2022/10/31 07:44:49;;;;;;;12.18;8.38;;;12.00;99.90;;;;;;5112623;28;20519;-74
2022/10/31 07:47:15;;;;;;;16.90;8.90;;;12.00;99.90;;;;;;5112520;28;20471;-74
2022/10/31 07:49:41;;;;;;;15.07;8.73;;;12.00;99.90;;;;;;5112196;28;20031;-74
2022/10/31 07:52:06;;;;;;;14.70;8.98;;;12.00;99.90;;;;;;5112130;28;20043;-74
2022/10/31 07:54:32;;;;;;;15.18;9.35;;;12.10;99.90;;;;;;5111964;28;20024;-74
2022/10/31 07:56:57;;;;;;;11.80;8.32;;;12.10;99.90;;;;;;5112561;28;20024;-75
2022/10/31 07:59:23;;;;;;;12.40;8.85;;;12.10;99.90;;;;;;5112269;28;20088;-75
2022/10/31 08:01:49;;;;;;;12.25;8.65;;;12.10;99.90;;;;;;5113159;28;20076;-75
2022/10/31 08:04:14;;;;;;;14.50;8.88;;;12.20;99.90;;;;;;5116319;28;20023;-74
2022/10/31 08:06:40;;;;;;;14.32;9.20;;;12.20;99.90;;;;;;5115182;28;20027;-75
2022/10/31 08:09:05;;;;;;;16.02;9.77;;;12.20;99.90;;;;;;5116427;28;20035;-75
2022/10/31 08:11:31;;;;;;;15.07;9.30;;;12.20;99.90;;;;;;5115965;28;20387;-77
2022/10/31 08:13:57;;;;;;;14.60;9.75;;;12.20;99.90;;;;;;5116318;28;20080;-76
2022/10/31 08:16:22;;;;;;;17.15;10.00;;;12.20;99.90;;;;;;5115755;28;20418;-77
2022/10/31 08:18:48;;;;;;;18.13;10.40;;;12.20;99.90;;;;;;5116230;28;20417;-77
2022/10/31 08:21:13;;;;;;;18.13;10.10;;;12.20;99.90;;;;;;5116176;28;20028;-76
2022/10/31 08:23:39;;;;;;;22.70;11.68;;;12.30;99.90;;;;;;5115491;28;20474;-76
2022/10/31 08:26:05;;;;;;;19.52;10.25;;;12.20;99.90;;;;;;5115879;28;20024;-76
2022/10/31 08:28:32;;;;;;;17.45;10.70;;;12.20;99.90;;;;;;5115848;28;20028;-76
2022/10/31 08:30:58;;;;;;;17.23;10.35;;;12.30;99.90;;;;;;5114344;28;20028;-75
2022/10/31 08:33:24;;;;;;;16.13;10.20;;;12.30;99.90;;;;;;5115273;28;20047;-77
2022/10/31 08:35:50;;;;;;;16.55;10.20;;;12.30;99.90;;;;;;5116019;28;20036;-76
2022/10/31 08:38:16;;;;;;;20.75;11.68;;;12.30;99.90;;;;;;5115345;28;20377;-76
2022/10/31 08:40:41;;;;;;;15.60;10.80;;;12.30;99.90;;;;;;5115239;28;20028;-77
2022/10/31 08:43:15;;;;;;;23.98;12.32;;;12.30;99.90;;;;;;5115524;28;20038;-76
2022/10/31 08:45:42;;;;;;;18.15;11.48;;;12.30;99.90;;;;;;5115317;28;20023;-75
2022/10/31 08:48:11;;;;;;;19.52;11.23;;;12.30;99.90;;;;;;5115396;28;20031;-77
2022/10/31 08:50:37;;;;;;;17.55;10.70;;;12.30;99.90;;;;;;5113959;28;20028;-77
2022/10/31 08:53:17;;;;;;;18.83;11.38;;;12.40;99.90;;;;;;5115566;28;20020;-77
2022/10/31 08:55:45;;;;;;;22.60;12.03;;;12.40;99.90;;;;;;5115312;28;20049;-77
2022/10/31 08:58:13;;;;;;;17.83;11.05;;;12.40;99.90;;;;;;5115377;28;20027;-77
2022/10/31 09:00:39;;;;;;;24.80;11.95;;;12.40;99.90;;;;;;5115000;28;20023;-76
2022/10/31 09:03:08;;;;;;;24.80;12.15;;;12.40;99.90;;;;;;5115096;28;20019;-74
2022/10/31 09:05:34;;;;;;;19.98;10.32;;;12.40;99.90;;;;;;5114642;28;20504;-75
2022/10/31 09:08:02;;;;;;;21.52;11.85;;;12.40;99.90;;;;;;5115227;28;20115;-75
2022/10/31 09:10:30;;;;;;;22.77;11.95;;;12.50;99.90;;;;;;5114931;28;20028;-75
2022/10/31 09:13:01;;;;;;;19.15;11.50;;;12.50;99.90;;;;;;5114779;27;20421;-76
2022/10/31 09:15:28;;;;;;;25.38;13.20;;;12.50;99.90;;;;;;5113090;28;20073;-76
2022/10/31 09:17:54;;;;;;;26.23;12.38;;;12.50;99.90;;;;;;5115049;27;20423;-76
2022/10/31 09:20:20;;;;;;;21.25;12.18;;;12.50;99.90;;;;;;5115227;28;20058;-75
2022/10/31 09:22:46;;;;;;;20.95;11.95;;;12.50;99.90;;;;;;5114514;28;20644;-76
2022/10/31 09:25:11;;;;;;;24.17;13.20;;;12.50;99.90;;;;;;5114791;28;20035;-76
2022/10/31 09:27:37;;;;;;;21.50;12.90;;;12.60;99.90;;;;;;5114745;28;20348;-76
2022/10/31 09:30:04;;;;;;;28.30;13.45;;;12.50;99.90;;;;;;5114910;28;20088;-76
2022/10/31 09:32:30;;;;;;;27.15;13.65;;;12.50;99.90;;;;;;5114469;28;20032;-77
2022/10/31 09:34:55;;;;;;;26.20;14.48;;;12.60;99.90;;;;;;5114324;28;20055;-76
2022/10/31 09:37:21;;;;;;;26.67;13.10;;;12.60;99.90;;;;;;5114592;28;20059;-76
2022/10/31 09:39:46;;;;;;;23.77;14.15;;;12.60;99.90;;;;;;5114508;28;20497;-75
2022/10/31 09:42:24;;;;;;;22.95;13.73;;;12.60;99.90;;;;;;5114577;28;20023;-75
2022/10/31 09:44:58;;;;;;;21.60;13.20;;;12.60;99.90;;;;;;5114479;28;20119;-75
2022/10/31 09:47:42;;;;;;;24.05;14.13;;;12.60;99.90;;;;;;5114272;28;20076;-77
2022/10/31 09:50:36;;;;;;;27.50;14.40;;;12.60;99.90;;;;;;5114906;28;20051;-77
2022/10/31 09:53:39;;;;;;;23.83;13.48;;;12.60;99.90;;;;;;5114489;28;20024;-77
2022/10/31 09:56:09;;;;;;;25.60;15.23;;;12.60;99.90;;;;;;5113951;28;20027;-77
2022/10/31 09:58:53;;;;;;;31.10;15.33;;;12.70;99.90;;;;;;5112415;28;20028;-77
2022/10/31 10:01:33;;;;;;;32.05;15.98;;;12.70;99.90;;;;;;5114354;28;20727;-77
2022/10/31 10:04:19;;;;;;;27.80;14.52;;;12.70;99.90;;;;;;5114361;28;20051;-77
2022/10/31 10:06:49;;;;;;;26.25;14.82;;;12.70;99.90;;;;;;5113647;28;20553;-76
2022/10/31 10:09:14;;;;;;;32.25;15.82;;;12.70;99.90;;;;;;5113914;28;20026;-76
2022/10/31 10:12:01;;;;;;;24.45;15.82;;;12.70;99.90;;;;;;5113724;28;20027;-76
2022/10/31 10:14:41;;;;;;;25.63;14.65;;;12.70;99.90;;;;;;5114214;28;20024;-76
2022/10/31 10:17:25;;;;;;;29.17;14.50;;;12.70;99.90;;;;;;5113567;28;20436;-76
2022/10/31 10:20:10;;;;;;;26.73;15.05;;;12.70;99.90;;;;;;5113441;28;20130;-77
2022/10/31 10:22:54;;;;;;;26.48;14.73;;;12.70;99.90;;;;;;5113457;28;20103;-75
2022/10/31 10:25:26;;;;;;;30.13;14.82;;;12.70;99.90;;;;;;5113939;28;20061;-77
2022/10/31 10:28:38;;;;;;;23.05;14.93;;;12.70;99.90;;;;;;5113198;28;20035;-77
2022/10/31 10:31:20;;;;;;;29.77;15.80;;;12.70;99.90;;;;;;5030944;28;20034;-77
2022/10/31 10:34:02;;;;;;;25.55;14.63;;;12.70;99.90;;;;;;5111264;28;20062;-75
2022/10/31 10:36:42;;;;;;;32.05;15.90;;;12.70;99.90;;;;;;5113506;28;20032;-76
2022/10/31 10:39:15;;;;;;;26.65;15.43;;;12.70;99.90;;;;;;5113364;28;20027;-74
2022/10/31 10:41:46;;;;;;;31.55;17.25;;;12.70;99.90;;;;;;5113211;28;20028;-75
2022/10/31 10:44:12;;;;;;;31.55;17.75;;;12.70;99.90;;;;;;5113343;28;20024;-76
2022/10/31 10:49:45;;;;;;;35.78;17.65;;;12.70;99.90;;;;;;5113095;28;20077;-74
2022/10/31 10:52:30;;;;;;;41.22;20.70;;;12.70;99.90;;;;;;5113103;28;20081;-77
2022/10/31 10:55:04;;;;;;;36.88;20.42;;;12.80;99.90;;;;;;5113021;28;20024;-76
2022/10/31 10:57:46;;;;;;;49.60;24.25;;;12.80;99.90;;;;;;5113440;28;20039;-76
2022/10/31 11:00:31;;;;;;;49.05;25.58;;;12.70;99.90;;;;;;5114979;28;20027;-77
2022/10/31 11:02:57;;;;;;;65.40;29.77;;;12.70;99.90;;;;;;5112898;28;20074;-77
2022/10/31 11:05:44;;;;;;;52.40;27.92;;;12.70;99.90;;;;;;5113014;28;20048;-77
2022/10/31 11:08:11;;;;;;;53.08;27.75;;;12.70;99.90;;;;;;5113043;28;20033;-76
2022/10/31 11:10:37;;;;;;;58.35;28.80;;;12.70;99.90;;;;;;5112704;28;20157;-77
2022/10/31 11:13:12;;;;;;;55.15;27.77;;;12.70;99.90;;;;;;5113275;28;20077;-77
2022/10/31 11:15:50;;;;;;;57.60;29.42;;;12.70;99.90;;;;;;5112768;28;20566;-77
2022/10/31 11:18:22;;;;;;;57.17;29.20;;;12.70;99.90;;;;;;5113143;28;20050;-77
2022/10/31 11:20:53;;;;;;;63.10;31.45;;;12.70;99.90;;;;;;5112632;28;20038;-76
2022/10/31 11:23:21;;;;;;;57.95;30.58;;;12.70;99.90;;;;;;5112733;28;20051;-76
2022/10/31 11:25:55;;;;;;;67.88;32.47;;;12.70;99.90;;;;;;5112586;28;20096;-76
2022/10/31 11:28:21;;;;;;;69.13;32.33;;;12.70;99.90;;;;;;5113114;28;20027;-76
2022/10/31 11:30:55;;;;;;;71.15;33.60;;;12.70;99.90;;;;;;5112633;28;20024;-76
2022/10/31 11:33:37;;;;;;;66.47;33.40;;;12.70;99.90;;;;;;5112820;28;20101;-74
2022/10/31 11:36:21;;;;;;;66.30;31.35;;;12.70;99.90;;;;;;5112891;28;20020;-77
2022/10/31 11:38:47;;;;;;;57.75;28.42;;;12.80;99.90;;;;;;5116563;28;20145;-75
2022/10/31 11:41:17;;;;;;;65.05;30.27;;;12.80;99.90;;;;;;5116835;28;20019;-76
2022/10/31 11:43:57;;;;;;;52.30;28.00;;;12.80;99.90;;;;;;5116455;28;20107;-77
2022/10/31 11:46:33;;;;;;;57.15;28.83;;;12.80;99.90;;;;;;5116829;28;20036;-77
2022/10/31 11:48:59;;;;;;;67.63;31.38;;;12.80;99.90;;;;;;5115225;28;20024;-77
2022/10/31 11:51:31;;;;;;;65.28;30.38;;;12.80;99.90;;;;;;5116426;28;20076;-76
2022/10/31 11:53:59;;;;;;;63.22;29.90;;;12.80;99.90;;;;;;5116156;28;20085;-77
2022/10/31 11:56:24;;;;;;;61.88;28.42;;;12.80;99.90;;;;;;5116406;28;20425;-77
2022/10/31 11:59:04;;;;;;;61.88;28.83;;;12.80;99.90;;;;;;5115693;28;20031;-77
2022/10/31 12:01:32;;;;;;;61.03;29.25;;;12.90;99.90;;;;;;5116332;28;20428;-76
2022/10/31 12:04:00;;;;;;;57.47;29.40;;;12.90;99.90;;;;;;5116002;28;20023;-76
2022/10/31 12:06:38;;;;;;;64.90;29.73;;;12.90;99.90;;;;;;5116106;28;20035;-76
2022/10/31 12:09:32;;;;;;;60.30;28.20;;;12.90;99.90;;;;;;5116559;28;20059;-76
2022/10/31 12:12:10;;;;;;;65.35;30.27;;;12.90;99.90;;;;;;5113557;28;20560;-76
2022/10/31 12:14:39;;;;;;;63.80;30.25;;;12.90;99.90;;;;;;5116445;28;20028;-76
2022/10/31 12:17:24;;;;;;;67.00;30.60;;;12.90;99.90;;;;;;5115947;28;20476;-76
2022/10/31 12:20:43;;;;;;;61.95;29.90;;;12.90;99.90;;;;;;5115855;28;20023;-76
2022/10/31 12:23:33;;;;;;;63.75;29.40;;;13.00;99.90;;;;;;5033150;28;20140;-76
2022/10/31 12:26:19;;;;;;;67.55;30.92;;;12.90;99.90;;;;;;5032825;28;20033;-76
2022/10/31 12:29:27;;;;;;;62.63;30.45;;;12.90;99.90;;;;;;5032773;28;20037;-75
2022/10/31 12:32:11;;;;;;;70.47;31.17;;;12.90;99.90;;;;;;4973987;28;20034;-74
2022/10/31 12:34:57;;;;;;;68.85;30.88;;;12.90;99.90;;;;;;5030848;28;20498;-77
2022/10/31 12:37:29;;;;;;;65.15;30.25;;;13.00;99.90;;;;;;5032864;28;20057;-77
2022/10/31 12:40:26;;;;;;;63.78;31.10;;;13.00;99.90;;;;;;5032414;28;20048;-76
2022/10/31 12:43:10;;;;;;;71.97;33.55;;;12.90;99.90;;;;;;5032503;28;20398;-76
2022/10/31 12:45:55;;;;;;;67.80;32.05;;;13.00;99.90;;;;;;5032716;28;20045;-77
2022/10/31 12:48:23;;;;;;;65.75;33.55;;;12.90;99.90;;;;;;5031450;28;20045;-77
2022/10/31 12:51:07;;;;;;;66.25;34.38;;;12.90;99.90;;;;;;5032596;28;20155;-76
2022/10/31 12:53:44;;;;;;;68.07;33.28;;;12.90;99.90;;;;;;5061300;28;20032;-76
2022/10/31 12:56:15;;;;;;;65.95;33.05;;;12.90;99.90;;;;;;5115441;28;20099;-76